createdAt,value
2018-04-01T00:01:07.535Z,60.60
2018-04-01T00:03:33.466Z,60.50
2018-04-01T00:05:59.363Z,60.30
2018-04-01T00:08:25.276Z,60.10
2018-04-01T00:10:51.198Z,59.80
2018-04-01T00:13:17.091Z,59.80
2018-04-01T00:15:43.032Z,59.70
2018-04-01T00:18:08.939Z,59.90
2018-04-01T00:20:35.613Z,59.80
2018-04-01T00:23:01.507Z,59.80
2018-04-01T00:25:28.187Z,59.90
2018-04-01T00:27:54.104Z,59.90
2018-04-01T00:30:20.019Z,59.80
2018-04-01T00:32:45.919Z,59.90
2018-04-01T00:35:11.869Z,60.00
2018-04-01T00:37:37.771Z,60.10
2018-04-01T00:40:03.696Z,59.90
2018-04-01T00:42:29.582Z,60.10
2018-04-01T00:44:56.300Z,60.40
2018-04-01T00:47:22.212Z,60.30
2018-04-01T00:49:48.180Z,59.80
2018-04-01T00:52:14.131Z,60.10
2018-04-01T00:54:40.049Z,60.30
2018-04-01T00:57:05.964Z,60.30
2018-04-01T00:59:31.863Z,60.20
2018-04-01T01:01:57.779Z,60.70
2018-04-01T01:04:24.405Z,60.70
2018-04-01T01:06:51.073Z,61.10
2018-04-01T01:09:16.988Z,61.10
2018-04-01T01:11:42.904Z,62.00
2018-04-01T01:14:08.803Z,62.00
2018-04-01T01:16:34.797Z,62.30
2018-04-01T01:19:00.692Z,62.70
2018-04-01T01:21:26.599Z,63.70
2018-04-01T01:23:53.253Z,64.90
2018-04-01T01:26:19.167Z,65.00
2018-04-01T01:28:45.101Z,66.00
2018-04-01T01:31:11.010Z,66.70
2018-04-01T01:33:36.955Z,67.30
2018-04-01T01:36:02.876Z,67.70
2018-04-01T01:38:28.783Z,68.40
2018-04-01T01:40:54.715Z,69.10
2018-04-01T01:43:20.626Z,69.70
2018-04-01T01:45:46.604Z,70.10
2018-04-01T01:48:13.253Z,70.70
2018-04-01T01:50:39.180Z,70.70
2018-04-01T01:53:05.178Z,71.20
2018-04-01T01:55:31.862Z,71.90
2018-04-01T01:57:57.765Z,71.80
2018-04-01T02:00:23.671Z,72.30
2018-04-01T02:02:50.334Z,73.30
2018-04-01T02:05:16.230Z,73.20
2018-04-01T02:07:42.907Z,73.40
2018-04-01T02:10:08.820Z,73.50
2018-04-01T02:12:34.737Z,73.40
2018-04-01T02:15:00.643Z,73.80
2018-04-01T02:17:26.527Z,73.80
2018-04-01T02:19:52.467Z,74.10
2018-04-01T02:22:19.151Z,74.30
2018-04-01T02:24:45.050Z,74.30
2018-04-01T02:27:10.998Z,74.10
2018-04-01T02:29:36.892Z,74.60
2018-04-01T02:32:02.830Z,74.90
2018-04-01T02:34:28.732Z,74.80
2018-04-01T02:36:54.680Z,75.10
2018-04-01T02:39:20.575Z,75.30
2018-04-01T02:41:46.483Z,75.00
2018-04-01T02:44:12.411Z,75.70
2018-04-01T02:46:38.319Z,76.10
2018-04-01T02:49:04.260Z,76.20
2018-04-01T02:51:30.921Z,76.60
2018-04-01T02:53:56.858Z,76.70
2018-04-01T02:56:22.789Z,76.50
2018-04-01T02:58:49.475Z,77.10
2018-04-01T03:01:15.436Z,77.10
2018-04-01T03:03:41.339Z,77.00
2018-04-01T03:06:07.293Z,77.40
2018-04-01T03:08:33.283Z,78.30
2018-04-01T03:10:59.207Z,78.60
2018-04-01T03:13:25.116Z,78.70
2018-04-01T03:15:51.060Z,79.50
2018-04-01T03:18:16.956Z,80.10
2018-04-01T03:20:42.882Z,80.40
2018-04-01T03:23:08.772Z,80.70
2018-04-01T03:25:34.696Z,81.10
2018-04-01T03:28:00.620Z,81.00
2018-04-01T03:30:26.556Z,81.10
2018-04-01T03:32:52.507Z,81.30
2018-04-01T03:35:18.451Z,81.30
2018-04-01T03:37:44.363Z,81.10
2018-04-01T03:40:10.273Z,81.00
2018-04-01T03:42:36.195Z,81.50
2018-04-01T03:45:02.141Z,81.50
2018-04-01T03:47:28.104Z,81.20
2018-04-01T03:49:54.019Z,82.00
2018-04-01T03:52:19.987Z,81.60
2018-04-01T03:54:45.927Z,81.70
2018-04-01T03:57:12.608Z,82.10
2018-04-01T03:59:38.488Z,82.80
2018-04-01T04:02:04.378Z,82.30
2018-04-01T04:04:30.303Z,82.40
2018-04-01T04:06:56.233Z,82.40
2018-04-01T04:09:22.125Z,82.30
2018-04-01T04:11:49.119Z,82.50
2018-04-01T04:14:18.158Z,82.30
2018-04-01T04:16:44.072Z,82.40
2018-04-01T04:19:10.028Z,82.50
2018-04-01T04:21:35.963Z,82.50
2018-04-01T04:24:01.875Z,82.60
2018-04-01T04:26:27.800Z,82.60
2018-04-01T04:28:53.743Z,82.70
2018-04-01T04:31:20.396Z,82.80
2018-04-01T04:33:46.332Z,82.70
2018-04-01T04:36:12.316Z,82.60
2018-04-01T04:38:38.271Z,82.30
2018-04-01T04:41:04.202Z,82.30
2018-04-01T04:43:30.124Z,81.90
2018-04-01T04:45:56.039Z,82.10
2018-04-01T04:48:22.042Z,82.30
2018-04-01T04:50:48.748Z,83.40
2018-04-01T04:53:14.759Z,82.70
2018-04-01T04:55:40.715Z,82.50
2018-04-01T04:58:06.710Z,82.80
2018-04-01T05:00:32.681Z,82.90
2018-04-01T05:02:58.656Z,83.10
2018-04-01T05:05:25.704Z,83.10
2018-04-01T05:07:51.720Z,83.70
2018-04-01T05:10:17.708Z,83.80
2018-04-01T05:12:44.384Z,84.10
2018-04-01T05:15:10.447Z,84.10
2018-04-01T05:17:37.160Z,84.50
2018-04-01T05:20:03.104Z,84.50
2018-04-01T05:22:29.060Z,84.60
2018-04-01T05:24:55.012Z,84.40
2018-04-01T05:27:20.951Z,84.30
2018-04-01T05:29:46.923Z,84.50
2018-04-01T05:32:12.862Z,84.60
2018-04-01T05:34:38.820Z,84.90
2018-04-01T05:37:04.771Z,84.70
2018-04-01T05:39:30.744Z,85.30
2018-04-01T05:41:56.682Z,84.30
2018-04-01T05:44:22.672Z,84.00
2018-04-01T05:46:48.613Z,83.70
2018-04-01T05:49:14.547Z,83.50
2018-04-01T05:51:41.627Z,83.90
2018-04-01T05:54:07.607Z,83.90
2018-04-01T05:56:33.576Z,83.80
2018-04-01T05:58:59.500Z,83.80
2018-04-01T06:01:25.448Z,83.80
2018-04-01T06:03:51.390Z,83.70
2018-04-01T06:06:17.351Z,83.10
2018-04-01T06:08:43.273Z,82.70
2018-04-01T06:11:09.216Z,82.60
2018-04-01T06:13:35.172Z,82.20
2018-04-01T06:16:01.168Z,81.20
2018-04-01T06:18:27.068Z,81.00
2018-04-01T06:20:53.020Z,80.50
2018-04-01T06:23:18.955Z,80.70
2018-04-01T06:25:44.925Z,80.60
2018-04-01T06:28:10.907Z,80.40
2018-04-01T06:30:36.887Z,81.10
2018-04-01T06:33:02.812Z,80.70
2018-04-01T06:35:28.761Z,80.70
2018-04-01T06:37:54.756Z,80.50
2018-04-01T06:40:20.711Z,80.40
2018-04-01T06:42:46.684Z,79.80
2018-04-01T06:45:12.673Z,80.10
2018-04-01T06:47:38.636Z,79.50
2018-04-01T06:50:04.767Z,80.50
2018-04-01T06:52:30.699Z,79.20
2018-04-01T06:54:56.655Z,79.40
2018-04-01T06:57:22.624Z,80.00
2018-04-01T06:59:48.623Z,79.40
2018-04-01T07:02:14.566Z,79.00
2018-04-01T07:04:40.503Z,78.50
2018-04-01T07:07:06.518Z,77.90
2018-04-01T07:09:32.492Z,76.80
2018-04-01T07:11:59.151Z,77.60
2018-04-01T07:14:25.152Z,77.60
2018-04-01T07:16:51.121Z,77.30
2018-04-01T07:19:17.108Z,75.80
2018-04-01T07:21:43.068Z,76.10
2018-04-01T07:24:09.090Z,76.40
2018-04-01T07:26:35.071Z,76.60
2018-04-01T07:29:01.064Z,77.90
2018-04-01T07:31:27.067Z,77.40
2018-04-01T07:33:52.996Z,78.30
2018-04-01T07:36:19.000Z,79.00
2018-04-01T07:38:44.888Z,80.40
2018-04-01T07:41:10.843Z,81.80
2018-04-01T07:43:36.805Z,83.40
2018-04-01T07:46:02.734Z,83.80
2018-04-01T07:48:28.688Z,85.20
2018-04-01T07:50:54.638Z,86.10
2018-04-01T07:53:20.589Z,85.40
2018-04-01T07:55:46.522Z,85.70
2018-04-01T07:58:12.499Z,86.30
2018-04-01T08:00:38.443Z,85.50
2018-04-01T08:03:04.428Z,85.60
2018-04-01T08:05:30.398Z,84.40
2018-04-01T08:07:56.385Z,84.10
2018-04-01T08:10:22.338Z,84.10
2018-04-01T08:12:48.301Z,83.30
2018-04-01T08:15:14.288Z,83.90
2018-04-01T08:17:40.964Z,83.50
2018-04-01T08:20:07.652Z,81.90
2018-04-01T08:22:33.590Z,81.90
2018-04-01T08:24:59.563Z,81.80
2018-04-01T08:27:25.532Z,81.30
2018-04-01T08:29:51.522Z,81.50
2018-04-01T08:32:17.465Z,81.40
2018-04-01T08:34:45.090Z,81.00
2018-04-01T08:37:11.544Z,80.50
2018-04-01T08:39:37.507Z,80.20
2018-04-01T08:42:04.571Z,80.00
2018-04-01T08:44:31.326Z,80.30
2018-04-01T08:46:57.279Z,80.30
2018-04-01T08:49:23.259Z,80.70
2018-04-01T08:51:49.172Z,79.00
2018-04-01T08:54:15.125Z,78.60
2018-04-01T08:56:41.096Z,79.00
2018-04-01T08:59:07.087Z,78.90
2018-04-01T09:01:33.047Z,79.00
2018-04-01T09:03:59.003Z,77.70
2018-04-01T09:06:24.961Z,78.10
2018-04-01T09:08:50.868Z,77.80
2018-04-01T09:11:16.809Z,78.00
2018-04-01T09:13:42.740Z,77.70
2018-04-01T09:16:08.788Z,78.00
2018-04-01T09:18:34.689Z,77.90
2018-04-01T09:21:00.692Z,77.00
2018-04-01T09:23:26.745Z,76.80
2018-04-01T09:25:53.438Z,76.90
2018-04-01T09:28:20.306Z,76.70
2018-04-01T09:30:47.096Z,76.90
2018-04-01T09:33:13.129Z,76.50
2018-04-01T09:35:40.688Z,76.40
2018-04-01T09:38:07.052Z,76.10
2018-04-01T09:40:35.047Z,76.10
2018-04-01T09:43:02.140Z,75.70
2018-04-01T09:45:29.104Z,75.40
2018-04-01T09:47:56.764Z,75.50
2018-04-01T09:50:25.454Z,76.20
2018-04-01T09:52:54.043Z,75.30
2018-04-01T09:55:20.082Z,75.40
2018-04-01T09:57:46.327Z,75.40
2018-04-01T10:00:13.862Z,74.20
2018-04-01T10:02:40.870Z,74.20
2018-04-01T10:05:06.840Z,74.70
2018-04-01T10:07:32.899Z,72.90
2018-04-01T10:10:00.978Z,72.80
2018-04-01T10:12:29.151Z,71.80
2018-04-01T10:14:56.363Z,70.80
2018-04-01T10:17:24.794Z,71.10
2018-04-01T10:19:51.590Z,71.10
2018-04-01T10:22:17.560Z,71.50
2018-04-01T10:24:44.372Z,70.70
2018-04-01T10:27:12.610Z,68.90
2018-04-01T10:29:38.632Z,68.80
2018-04-01T10:32:05.280Z,65.10
2018-04-01T10:34:31.299Z,65.20
2018-04-01T10:36:58.259Z,65.40
2018-04-01T10:39:26.684Z,63.50
2018-04-01T10:41:53.544Z,63.00
2018-04-01T10:44:19.466Z,63.50
2018-04-01T10:46:45.498Z,63.40
2018-04-01T10:49:12.345Z,63.20
2018-04-01T10:51:39.496Z,64.20
2018-04-01T10:54:05.605Z,63.40
2018-04-01T10:56:32.779Z,66.30
2018-04-01T10:58:59.480Z,76.30
2018-04-01T11:01:25.368Z,75.90
2018-04-01T11:03:51.332Z,79.00
2018-04-01T11:06:17.239Z,80.70
2018-04-01T11:08:43.151Z,81.80
2018-04-01T11:11:09.819Z,84.20
2018-04-01T11:13:35.718Z,84.20
2018-04-01T11:16:01.643Z,84.20
2018-04-01T11:18:27.579Z,84.20
2018-04-01T11:20:53.537Z,84.60
2018-04-01T11:23:19.640Z,84.40
2018-04-01T11:25:45.560Z,84.70
2018-04-01T11:28:11.463Z,85.10
2018-04-01T11:30:37.376Z,84.80
2018-04-01T11:33:03.275Z,83.30
2018-04-01T11:35:29.968Z,81.40
2018-04-01T11:37:55.881Z,81.30
2018-04-01T11:40:21.831Z,81.70
2018-04-01T11:42:47.755Z,82.70
2018-04-01T11:45:15.433Z,80.80
2018-04-01T11:47:42.111Z,81.70
2018-04-01T11:50:08.052Z,81.60
2018-04-01T11:52:33.977Z,80.90
2018-04-01T11:54:59.892Z,80.00
2018-04-01T11:57:25.815Z,77.20
2018-04-01T11:59:51.719Z,76.20
2018-04-01T12:02:17.634Z,76.60
2018-04-01T12:04:43.543Z,74.90
2018-04-01T12:07:09.495Z,75.90
2018-04-01T12:09:35.449Z,74.20
2018-04-01T12:12:01.369Z,72.20
2018-04-01T12:14:27.359Z,72.50
2018-04-01T12:16:53.263Z,70.50
2018-04-01T12:19:20.004Z,70.50
2018-04-01T12:21:45.978Z,70.80
2018-04-01T12:24:13.234Z,71.90
2018-04-01T12:26:39.219Z,70.00
2018-04-01T12:29:05.196Z,69.60
2018-04-01T12:31:33.430Z,69.70
2018-04-01T12:33:59.466Z,69.30
2018-04-01T12:36:26.251Z,69.80
2018-04-01T12:38:54.432Z,69.70
2018-04-01T12:41:22.286Z,70.30
2018-04-01T12:43:48.430Z,68.30
2018-04-01T12:46:14.834Z,67.80
2018-04-01T12:48:41.045Z,66.70
2018-04-01T12:51:07.351Z,68.70
2018-04-01T12:53:34.140Z,68.40
2018-04-01T12:56:00.187Z,68.90
2018-04-01T12:58:27.822Z,68.40
2018-04-01T13:00:53.813Z,68.40
2018-04-01T13:03:20.595Z,70.30
2018-04-01T13:05:46.778Z,70.90
2018-04-01T13:08:12.860Z,72.20
2018-04-01T13:10:38.837Z,76.90
2018-04-01T13:13:04.741Z,80.60
2018-04-01T13:15:30.728Z,82.00
2018-04-01T13:17:56.670Z,83.50
2018-04-01T13:20:22.609Z,83.40
2018-04-01T13:22:48.557Z,83.90
2018-04-01T13:25:15.215Z,83.30
2018-04-01T13:27:41.144Z,83.30
2018-04-01T13:30:07.049Z,83.80
2018-04-01T13:32:32.991Z,84.90
2018-04-01T13:34:58.907Z,83.00
2018-04-01T13:37:24.852Z,82.60
2018-04-01T13:39:50.776Z,82.50
2018-04-01T13:42:16.674Z,82.90
2018-04-01T13:44:42.595Z,80.90
2018-04-01T13:47:08.515Z,78.60
2018-04-01T13:49:34.439Z,79.80
2018-04-01T13:52:00.356Z,79.60
2018-04-01T13:54:26.276Z,79.40
2018-04-01T13:56:52.195Z,79.40
2018-04-01T13:59:18.116Z,78.90
2018-04-01T14:01:44.032Z,78.70
2018-04-01T14:04:09.951Z,78.20
2018-04-01T14:06:35.928Z,77.10
2018-04-01T14:09:01.861Z,75.30
2018-04-01T14:11:27.763Z,75.10
2018-04-01T14:13:53.701Z,73.80
2018-04-01T14:16:19.627Z,73.10
2018-04-01T14:18:45.551Z,71.90
2018-04-01T14:21:11.492Z,73.00
2018-04-01T14:23:38.178Z,73.00
2018-04-01T14:26:04.361Z,73.00
2018-04-01T14:28:30.307Z,72.20
2018-04-01T14:30:56.337Z,73.10
2018-04-01T14:33:22.239Z,72.30
2018-04-01T14:35:49.180Z,70.10
2018-04-01T14:38:15.110Z,70.30
2018-04-01T14:40:41.060Z,69.40
2018-04-01T14:43:07.813Z,69.00
2018-04-01T14:45:33.832Z,66.90
2018-04-01T14:47:59.756Z,67.50
2018-04-01T14:50:25.711Z,65.50
2018-04-01T14:52:51.672Z,66.00
2018-04-01T14:55:17.576Z,67.20
2018-04-01T14:57:43.561Z,67.60
2018-04-01T15:00:10.594Z,66.70
2018-04-01T15:02:37.788Z,66.70
2018-04-01T15:05:04.855Z,66.60
2018-04-01T15:07:30.819Z,66.80
2018-04-01T15:10:00.369Z,67.10
2018-04-01T15:12:26.684Z,67.10
2018-04-01T15:14:52.724Z,67.60
2018-04-01T15:17:19.010Z,66.60
2018-04-01T15:19:47.408Z,65.80
2018-04-01T15:22:15.816Z,66.10
2018-04-01T15:24:42.079Z,65.80
2018-04-01T15:27:10.369Z,66.00
2018-04-01T15:29:37.118Z,66.20
2018-04-01T15:32:03.876Z,66.10
2018-04-01T15:34:29.888Z,66.10
2018-04-01T15:36:56.676Z,66.90
2018-04-01T15:39:22.672Z,66.20
2018-04-01T15:41:49.235Z,67.10
2018-04-01T15:44:15.216Z,68.30
2018-04-01T15:46:41.981Z,73.80
2018-04-01T15:49:07.867Z,73.80
2018-04-01T15:51:35.282Z,75.60
2018-04-01T15:54:01.267Z,75.50
2018-04-01T15:56:27.226Z,76.00
2018-04-01T15:58:53.290Z,76.40
2018-04-01T16:01:20.021Z,75.00
2018-04-01T16:03:45.964Z,74.90
2018-04-01T16:06:12.662Z,73.00
2018-04-01T16:08:38.651Z,72.90
2018-04-01T16:11:04.593Z,70.00
2018-04-01T16:13:30.567Z,70.30
2018-04-01T16:15:56.575Z,70.60
2018-04-01T16:18:22.480Z,71.70
2018-04-01T16:20:48.502Z,70.90
2018-04-01T16:23:14.538Z,70.50
2018-04-01T16:25:40.518Z,71.20
2018-04-01T16:28:06.478Z,70.20
2018-04-01T16:30:32.493Z,70.20
2018-04-01T16:32:58.755Z,70.70
2018-04-01T16:35:25.034Z,70.70
2018-04-01T16:37:51.256Z,70.50
2018-04-01T16:40:17.315Z,70.10
2018-04-01T16:42:43.286Z,69.40
2018-04-01T16:45:09.750Z,69.60
2018-04-01T16:47:35.703Z,68.70
2018-04-01T16:50:01.612Z,69.20
2018-04-01T16:52:27.565Z,68.80
2018-04-01T16:54:53.511Z,69.20
2018-04-01T16:57:19.576Z,68.70
2018-04-01T16:59:45.566Z,68.80
2018-04-01T17:02:11.496Z,69.50
2018-04-01T17:04:37.503Z,69.10
2018-04-01T17:07:03.447Z,69.50
2018-04-01T17:09:29.537Z,69.50
2018-04-01T17:11:55.384Z,69.80
2018-04-01T17:14:21.403Z,69.70
2018-04-01T17:16:47.390Z,70.60
2018-04-01T17:19:13.434Z,70.40
2018-04-01T17:21:39.440Z,71.10
2018-04-01T17:24:05.369Z,71.30
2018-04-01T17:26:31.484Z,71.50
2018-04-01T17:28:57.413Z,71.90
2018-04-01T17:31:23.320Z,72.60
2018-04-01T17:33:50.031Z,72.20
2018-04-01T17:36:15.968Z,72.20
2018-04-01T17:38:41.987Z,72.20
2018-04-01T17:41:07.919Z,73.10
2018-04-01T17:43:34.617Z,77.80
2018-04-01T17:46:00.539Z,77.70
2018-04-01T17:48:26.747Z,79.20
2018-04-01T17:50:52.725Z,81.40
2018-04-01T17:53:18.657Z,82.70
2018-04-01T17:55:45.335Z,83.80
2018-04-01T17:58:11.338Z,83.80
2018-04-01T18:00:37.224Z,84.70
2018-04-01T18:03:03.155Z,85.20
2018-04-01T18:05:29.820Z,85.50
2018-04-01T18:07:55.793Z,85.50
2018-04-01T18:10:21.707Z,85.30
2018-04-01T18:12:47.631Z,85.20
2018-04-01T18:15:13.614Z,84.60
2018-04-01T18:17:39.588Z,84.20
2018-04-01T18:20:05.515Z,84.10
2018-04-01T18:22:32.167Z,83.80
2018-04-01T18:24:58.102Z,83.80
2018-04-01T18:27:24.060Z,83.90
2018-04-01T18:29:49.976Z,83.70
2018-04-01T18:32:16.027Z,83.90
2018-04-01T18:34:41.953Z,83.70
2018-04-01T18:37:07.892Z,83.40
2018-04-01T18:39:34.626Z,84.10
2018-04-01T18:42:00.580Z,83.90
2018-04-01T18:44:26.604Z,84.00
2018-04-01T18:46:52.546Z,84.20
2018-04-01T18:49:18.520Z,84.20
2018-04-01T18:51:45.192Z,84.40
2018-04-01T18:54:11.181Z,84.40
2018-04-01T18:56:37.843Z,83.90
2018-04-01T18:59:03.850Z,83.90
2018-04-01T19:01:29.832Z,83.80
2018-04-01T19:03:55.788Z,83.90
2018-04-01T19:06:21.795Z,84.30
2018-04-01T19:08:47.736Z,84.30
2018-04-01T19:11:13.748Z,84.10
2018-04-01T19:13:39.880Z,84.00
2018-04-01T19:16:06.733Z,84.00
2018-04-01T19:18:32.679Z,84.00
2018-04-01T19:20:58.690Z,84.10
2018-04-01T19:23:24.673Z,84.10
2018-04-01T19:25:50.617Z,83.90
2018-04-01T19:28:16.638Z,83.70
2018-04-01T19:30:42.630Z,83.50
2018-04-01T19:33:08.708Z,83.90
2018-04-01T19:35:34.718Z,84.40
2018-04-01T19:38:00.798Z,84.30
2018-04-01T19:40:26.786Z,84.20
2018-04-01T19:42:52.768Z,84.00
2018-04-01T19:45:19.573Z,83.80
2018-04-01T19:47:45.722Z,83.80
2018-04-01T19:50:11.776Z,83.80
2018-04-01T19:52:37.827Z,83.70
2018-04-01T19:55:03.979Z,83.60
2018-04-01T19:57:30.155Z,83.80
2018-04-01T19:59:56.216Z,83.40
2018-04-01T20:02:22.186Z,83.60
2018-04-01T20:04:48.155Z,83.80
2018-04-01T20:07:14.157Z,84.30
2018-04-01T20:09:40.180Z,84.30
2018-04-01T20:12:06.267Z,84.50
2018-04-01T20:14:32.335Z,84.40
2018-04-01T20:16:58.474Z,84.40
2018-04-01T20:19:24.899Z,84.20
2018-04-01T20:21:50.935Z,83.90
2018-04-01T20:24:17.028Z,83.80
2018-04-01T20:26:43.053Z,83.40
2018-04-01T20:29:09.114Z,82.90
2018-04-01T20:31:35.137Z,83.20
2018-04-01T20:34:01.162Z,83.30
2018-04-01T20:36:27.217Z,83.00
2018-04-01T20:38:53.339Z,82.50
2018-04-01T20:41:20.134Z,82.60
2018-04-01T20:43:46.993Z,82.60
2018-04-01T20:46:13.966Z,82.40
2018-04-01T20:48:40.214Z,82.30
2018-04-01T20:51:07.098Z,81.90
2018-04-01T20:53:33.396Z,81.90
2018-04-01T20:55:59.921Z,81.90
2018-04-01T20:58:29.960Z,82.10
2018-04-01T21:00:57.896Z,82.10
2018-04-01T21:03:25.857Z,82.00
2018-04-01T21:05:52.974Z,81.90
2018-04-01T21:08:19.643Z,81.70
2018-04-01T21:10:46.192Z,81.70
2018-04-01T21:13:12.949Z,81.40
2018-04-01T21:15:41.386Z,81.60
2018-04-01T21:18:08.243Z,81.80
2018-04-01T21:20:35.640Z,81.20
2018-04-01T21:23:01.663Z,81.20
2018-04-01T21:25:28.151Z,81.10
2018-04-01T21:27:55.194Z,81.10
2018-04-01T21:30:21.510Z,80.90
2018-04-01T21:32:47.605Z,80.60
2018-04-01T21:35:13.864Z,80.80
2018-04-01T21:37:39.842Z,80.90
2018-04-01T21:40:05.928Z,80.70
2018-04-01T21:42:32.124Z,80.60
2018-04-01T21:44:58.339Z,80.80
2018-04-01T21:47:24.368Z,80.90
2018-04-01T21:49:50.477Z,81.10
2018-04-01T21:52:16.641Z,81.30
2018-04-01T21:54:42.736Z,81.60
2018-04-01T21:57:08.762Z,81.50
2018-04-01T21:59:34.941Z,81.70
2018-04-01T22:02:01.334Z,81.50
2018-04-01T22:04:27.425Z,81.70
2018-04-01T22:06:53.450Z,81.90
2018-04-01T22:09:19.767Z,82.10
2018-04-01T22:11:45.975Z,82.00
2018-04-01T22:14:12.052Z,82.10
2018-04-01T22:16:38.157Z,81.80
2018-04-01T22:19:04.150Z,81.80
2018-04-01T22:21:30.164Z,81.90
2018-04-01T22:23:56.142Z,81.60
2018-04-01T22:26:22.208Z,81.30
2018-04-01T22:28:48.203Z,81.40
2018-04-01T22:31:14.129Z,81.50
2018-04-01T22:33:40.201Z,82.10
2018-04-01T22:36:06.227Z,82.00
2018-04-01T22:38:32.997Z,82.20
2018-04-01T22:40:58.969Z,82.20
2018-04-01T22:43:24.986Z,82.50
2018-04-01T22:45:51.725Z,82.50
2018-04-01T22:48:17.706Z,82.50
2018-04-01T22:50:43.707Z,82.70
2018-04-01T22:53:09.754Z,82.30
2018-04-01T22:55:36.039Z,82.00
2018-04-01T22:58:03.601Z,81.90
2018-04-01T23:00:30.172Z,81.90
2018-04-01T23:02:56.678Z,81.80
2018-04-01T23:05:25.034Z,81.60
2018-04-01T23:07:52.827Z,81.00
2018-04-01T23:10:20.161Z,81.00
2018-04-01T23:12:47.390Z,81.10
2018-04-01T23:15:18.601Z,80.00
2018-04-01T23:17:44.643Z,80.00
2018-04-01T23:20:11.543Z,79.20
2018-04-01T23:22:38.432Z,79.20
2018-04-01T23:25:06.009Z,79.10
2018-04-01T23:27:33.692Z,78.90
2018-04-01T23:30:01.192Z,78.90
2018-04-01T23:32:28.301Z,79.30
2018-04-01T23:34:55.507Z,79.60
2018-04-01T23:37:23.989Z,80.00
2018-04-01T23:39:50.568Z,79.90
2018-04-01T23:42:17.127Z,80.10
2018-04-01T23:44:44.073Z,79.70
2018-04-01T23:47:12.291Z,79.70
2018-04-01T23:49:40.467Z,79.50
2018-04-01T23:52:09.381Z,79.50
2018-04-01T23:54:37.526Z,79.50
2018-04-01T23:57:06.330Z,79.60
2018-04-01T23:59:35.235Z,79.40
